Stations météo

réclame
Mon MeteoGroup
Nieuw Beerta aws, Pays-Bas (6286): Température de l'air & dewpoint: 14.09.2020 19:00:00 - 20.09.2020 19:00:00 (CEST)Nieuw Beerta aws, Pays-Bas (6286): Température de l'air 5cm & Température de l'air -5cm: 14.09.2020 19:00:00 - 20.09.2020 19:00:00 (CEST)Nieuw Beerta aws, Pays-Bas (6286): Température de l'air -20cm & Température de l'air -100cm: 14.09.2020 19:00:00 - 20.09.2020 19:00:00 (CEST)Nieuw Beerta aws, Pays-Bas (6286): Vitesse du vent & gusts: 14.09.2020 19:00:00 - 20.09.2020 19:00:00 (CEST)Nieuw Beerta aws, Pays-Bas (6286): Direction du vent: 14.09.2020 19:00:00 - 20.09.2020 19:00:00 (CEST)Nieuw Beerta aws, Pays-Bas (6286): Quantités de précipitations: 14.09.2020 19:00:00 - 20.09.2020 19:00:00 (CEST)
Date & Time tt [°C] td [°C] tt 5cm [°C] tt -5cm [°C] tt -20cm [°C] tt -100cm [°C] ff [km/h] ff [knt] fx [km/h] fx [knt] dd rr [mm]
20.09.2020 19:00:00 18,1 10,4 17,6 16,1 15,4 15,8 22 12 29 16 NE 0,0
20.09.2020 18:00:00 20,4 10,0 20,3 16,3 15,3 15,8 18 10 29 16 NE 0,0
20.09.2020 17:00:00 21,7 8,4 22,1 16,5 15,1 15,8 18 10 29 16 NE 0,0
20.09.2020 16:00:00 21,6 8,5 23,1 16,5 15,0 15,8 18 10 25 14 ENE 0,0
20.09.2020 15:00:00 21,3 8,4 23,1 16,1 14,8 15,8 18 10 25 14 ENE 0,0
20.09.2020 14:00:00 20,6 8,1 22,6 15,7 14,7 15,8 18 10 29 16 ENE 0,0
20.09.2020 13:00:00 19,7 8,0 21,6 15,1 14,5 15,8 22 12 29 16 E 0,0
20.09.2020 12:00:00 17,9 8,6 19,4 14,4 14,5 15,8 18 10 29 16 ENE 0,0
20.09.2020 11:00:00 15,8 9,3 16,9 13,7 14,5 15,8 14 8 18 10 NE 0,0
20.09.2020 10:00:00 12,9 8,8 13,2 13,1 14,5 15,8 14 8 18 10 ENE 0,0
20.09.2020 09:00:00 10,6 7,8 9,9 12,9 14,6 15,8 7 4 14 8 E 0,0
20.09.2020 08:00:00 7,7 6,3 6,4 12,9 14,7 15,8 11 6 14 8 ENE 0,0
20.09.2020 07:00:00 6,9 5,9 5,8 13,0 14,9 15,8 11 6 14 8 ENE 0,0
20.09.2020 06:00:00 6,5 5,2 4,9 13,2 15,0 15,8 11 6 14 8 NE 0,0
20.09.2020 05:00:00 7,0 5,8 5,7 13,4 15,1 15,8 7 4 14 8 NE 0,0
20.09.2020 04:00:00 8,0 6,4 7,2 13,6 15,2 15,8 14 8 22 12 NE 0,0
20.09.2020 03:00:00 8,5 7,0 7,6 13,7 15,3 15,8 18 10 22 12 NE 0,0
20.09.2020 02:00:00 8,9 6,9 7,3 13,9 15,3 15,8 14 8 18 10 NE 0,0
20.09.2020 01:00:00 8,3 6,0 7,0 14,2 15,4 15,8 14 8 14 8 NE 0,0
20.09.2020 00:00:00 9,1 5,2 7,8 14,5 15,5 15,8 11 6 18 10 NE 0,0
19.09.2020 23:00:00 10,4 5,7 9,3 14,7 15,6 15,8 14 8 22 12 NE 0,0
19.09.2020 22:00:00 11,9 6,6 10,8 15,0 15,6 15,8 18 10 22 12 ENE 0,0
19.09.2020 21:00:00 12,9 7,0 11,7 15,4 15,6 15,8 14 8 22 12 ENE 0,0
19.09.2020 20:00:00 15,0 7,4 13,9 15,7 15,6 15,8 18 10 29 16 ENE 0,0
19.09.2020 19:00:00 17,4 8,1 16,7 16,0 15,6 15,8 22 12 32 18 ENE 0,0
19.09.2020 18:00:00 19,9 8,0 19,5 16,3 15,5 15,8 25 14 36 19 ENE 0,0
19.09.2020 17:00:00 21,5 7,2 21,8 16,4 15,3 15,8 25 14 36 19 E 0,0
19.09.2020 16:00:00 21,8 7,0 22,7 16,4 15,2 15,8 22 12 36 19 E 0,0
19.09.2020 15:00:00 21,8 7,2 23,2 16,2 15,0 15,8 22 12 32 18 E 0,0
19.09.2020 14:00:00 21,4 7,2 22,9 15,7 14,9 15,8 22 12 32 18 E 0,0
19.09.2020 13:00:00 20,0 7,5 21,6 15,1 14,8 15,8 18 10 29 16 E 0,0
19.09.2020 12:00:00 18,2 7,6 19,5 14,3 14,8 15,8 18 10 29 16 E 0,0
19.09.2020 11:00:00 15,3 7,0 16,0 13,7 14,8 15,8 22 12 32 18 E 0,0
19.09.2020 10:00:00 12,8 6,2 12,9 13,3 14,8 15,8 22 12 25 14 E 0,0
19.09.2020 09:00:00 10,8 5,8 10,0 13,1 14,9 15,8 18 10 25 14 ENE 0,0
19.09.2020 08:00:00 8,2 4,9 7,3 13,1 15,0 15,8 18 10 22 12 ENE 0,0
19.09.2020 07:00:00 7,5 4,5 6,8 13,3 15,1 15,9 18 10 22 12 ENE 0,0
19.09.2020 06:00:00 7,5 4,5 6,7 13,4 15,3 15,9 14 8 22 12 ENE 0,0
19.09.2020 05:00:00 7,9 4,5 7,0 13,6 15,4 15,9 18 10 22 12 ENE 0,0
19.09.2020 04:00:00 7,7 4,4 6,6 13,7 15,5 15,9 14 8 18 10 ENE 0,0
19.09.2020 03:00:00 8,4 4,5 7,3 13,9 15,6 15,8 14 8 22 12 ENE 0,0
19.09.2020 02:00:00 8,9 4,6 8,0 14,1 15,7 15,9 18 10 22 12 ENE 0,0
19.09.2020 01:00:00 9,0 4,7 7,5 14,3 15,8 15,9 14 8 18 10 ENE 0,0
19.09.2020 00:00:00 10,0 5,3 8,7 14,6 15,8 15,9 14 8 22 12 ENE 0,0
18.09.2020 23:00:00 10,9 5,9 9,4 14,8 15,9 15,9 18 10 22 12 ENE 0,0
18.09.2020 22:00:00 10,8 6,0 9,8 15,1 16,0 15,9 14 8 22 12 ENE 0,0
18.09.2020 21:00:00 12,1 6,4 11,1 15,4 16,0 15,8 18 10 22 12 ENE 0,0
18.09.2020 20:00:00 13,3 7,2 11,9 15,8 16,0 15,8 14 8 25 14 ENE 0,0
18.09.2020 19:00:00 16,5 7,4 15,7 16,1 16,0 15,8 18 10 32 18 ENE 0,0
18.09.2020 18:00:00 18,2 7,0 17,8 16,3 15,9 15,8 25 14 32 18 E 0,0
18.09.2020 17:00:00 18,8 7,4 19,1 16,4 15,8 15,8 22 12 32 18 E 0,0
18.09.2020 16:00:00 19,1 5,8 20,4 16,4 15,7 15,8 25 14 36 19 E 0,0
18.09.2020 15:00:00 19,1 6,3 20,3 16,3 15,6 15,8 25 14 36 19 E 0,0
18.09.2020 14:00:00 18,0 4,8 19,7 15,9 15,5 15,8 25 14 36 19 E 0,0
18.09.2020 13:00:00 17,4 5,1 19,1 15,5 15,4 15,8 25 14 32 18 E 0,0
18.09.2020 12:00:00 16,6 7,0 17,7 14,9 15,4 15,8 22 12 29 16 E 0,0
18.09.2020 11:00:00 14,2 8,3 15,1 14,2 15,4 15,8 14 8 22 12 E 0,0
18.09.2020 10:00:00 11,9 7,5 12,3 13,7 15,5 15,8 14 8 22 12 E 0,0
18.09.2020 09:00:00 8,9 6,2 8,6 13,5 15,6 15,8 14 8 18 10 ENE 0,0
18.09.2020 08:00:00 6,0 4,5 5,1 13,6 15,8 15,8 11 6 14 8 ENE 0,0
18.09.2020 07:00:00 5,3 3,9 4,5 13,7 15,9 15,8 11 6 14 8 E 0,0
18.09.2020 06:00:00 5,3 4,0 4,2 13,9 16,1 15,8 11 6 14 8 ENE 0,0
18.09.2020 05:00:00 5,6 4,1 4,6 14,2 16,2 15,8 11 6 14 8 ENE 0,0
18.09.2020 04:00:00 6,0 4,3 4,8 14,4 16,3 15,8 11 6 14 8 ENE 0,0
18.09.2020 03:00:00 7,0 4,8 5,9 14,6 16,5 15,8 11 6 18 10 ENE 0,0
18.09.2020 02:00:00 7,3 5,1 5,5 14,9 16,6 15,8 14 8 14 8 ENE 0,0
18.09.2020 01:00:00 7,8 5,6 6,7 15,2 16,7 15,8 11 6 14 8 ENE 0,0
18.09.2020 00:00:00 8,3 6,2 7,1 15,5 16,8 15,8 11 6 14 8 ENE 0,0
17.09.2020 23:00:00 9,1 7,2 8,2 15,8 16,9 15,8 11 6 18 10 ENE 0,0
17.09.2020 22:00:00 10,7 8,2 10,0 16,1 17,0 15,8 14 8 22 12 NE 0,0
17.09.2020 21:00:00 11,6 8,4 10,7 16,4 17,1 15,8 14 8 22 12 NE 0,0
17.09.2020 20:00:00 12,4 8,7 11,5 16,8 17,1 15,8 14 8 25 14 NE 0,0
17.09.2020 19:00:00 14,8 8,8 14,2 17,1 17,1 15,8 18 10 25 14 NE 0,0
17.09.2020 18:00:00 16,5 8,3 16,5 17,4 17,1 15,8 18 10 32 18 ENE 0,0
17.09.2020 17:00:00 17,4 7,6 17,9 17,7 17,0 15,8 22 12 29 16 ENE 0,0
17.09.2020 16:00:00 17,7 7,7 19,1 17,7 16,9 15,8 18 10 32 18 NE 0,0
17.09.2020 15:00:00 17,9 7,6 19,4 17,6 16,8 15,8 18 10 32 18 ENE 0,0
17.09.2020 14:00:00 17,5 6,5 19,2 17,3 16,7 15,8 18 10 29 16 ENE 0,0
17.09.2020 13:00:00 17,2 8,4 18,6 17,0 16,7 15,8 18 10 32 18 ENE 0,0
17.09.2020 12:00:00 16,8 8,2 17,9 16,4 16,7 15,8 22 12 32 18 ENE 0,0
17.09.2020 11:00:00 15,6 8,5 16,4 15,9 16,7 15,8 22 12 29 16 ENE 0,0
17.09.2020 10:00:00 14,2 10,0 14,4 15,5 16,8 15,8 18 10 25 14 ENE 0,0
17.09.2020 09:00:00 12,1 9,1 11,7 15,3 16,9 15,8 11 6 14 8 ENE 0,0
17.09.2020 08:00:00 9,7 7,8 8,6 15,4 17,1 15,8 11 6 14 8 NE 0,0
17.09.2020 07:00:00 9,2 7,7 8,1 15,6 17,2 15,8 14 8 18 10 NE 0,0
17.09.2020 06:00:00 8,2 6,6 7,1 15,9 17,3 15,8 14 8 14 8 NNE 0,0
17.09.2020 05:00:00 10,2 8,6 9,2 16,2 17,5 15,8 11 6 18 10 NE 0,0
17.09.2020 04:00:00 12,2 10,2 11,5 16,4 17,6 15,8 14 8 22 12 NE 0,0
17.09.2020 03:00:00 13,3 11,0 12,5 16,6 17,7 15,8 14 8 22 12 NNE 0,0
17.09.2020 02:00:00 12,9 10,6 11,9 16,8 17,8 15,8 14 8 18 10 N 0,0
17.09.2020 01:00:00 13,0 10,0 12,1 17,1 17,9 15,7 14 8 25 14 N 0,0
17.09.2020 00:00:00 13,4 9,8 12,7 17,3 18,1 15,7 14 8 32 18 N 0,0
16.09.2020 23:00:00 13,6 9,7 12,9 17,7 18,2 15,7 18 10 29 16 N 0,0
16.09.2020 22:00:00 14,2 10,3 13,5 18,1 18,3 15,7 18 10 32 18 N 0,0
16.09.2020 21:00:00 15,1 11,1 14,6 18,4 18,3 15,7 18 10 36 19 N 0,0
16.09.2020 20:00:00 15,7 11,9 15,4 18,9 18,3 15,7 25 14 36 19 N 0,0
16.09.2020 19:00:00 16,8 12,8 16,6 19,3 18,3 15,7 22 12 32 18 N 0,0
16.09.2020 18:00:00 18,4 14,3 18,8 19,7 18,3 15,7 25 14 36 19 N 0,0
16.09.2020 17:00:00 19,8 14,8 19,9 20,0 18,2 15,7 25 14 36 19 N 0,0
16.09.2020 16:00:00 19,8 14,9 20,7 20,1 18,1 15,7 29 16 43 23 N 0,0
16.09.2020 15:00:00 21,3 15,3 22,6 20,0 17,9 15,7 29 16 36 19 N 0,0
16.09.2020 14:00:00 21,8 15,3 22,7 19,7 17,8 15,7 25 14 36 19 N 0,0
16.09.2020 13:00:00 21,2 15,8 22,5 19,2 17,7 15,7 22 12 32 18 N 0,0
16.09.2020 12:00:00 21,0 16,0 22,1 18,7 17,6 15,7 22 12 29 16 N 0,0
16.09.2020 11:00:00 19,4 16,3 20,3 18,0 17,6 15,7 18 10 29 16 N 0,0
16.09.2020 10:00:00 18,5 17,0 18,9 17,6 17,6 15,7 18 10 25 14 NNE 0,0
16.09.2020 09:00:00 17,4 16,5 17,3 17,4 17,7 15,7 22 12 29 16 N 0,0
16.09.2020 08:00:00 17,0 16,8 16,9 17,2 17,7 15,7 14 8 25 14 N 0,0
16.09.2020 07:00:00 16,6 15,8 15,7 17,2 17,8 15,7 11 6 18 10 N 0,0
16.09.2020 06:00:00 15,8 14,7 14,4 17,4 17,9 15,7 11 6 14 8 N 0,0
16.09.2020 05:00:00 14,9 14,7 14,2 17,5 18,0 15,7 7 4 11 6 NNW 0,0
16.09.2020 04:00:00 15,6 15,3 14,1 17,7 18,1 15,7 4 2 7 4 N 0,0
16.09.2020 03:00:00 15,8 15,6 14,4 17,9 18,2 15,7 0 0 7 4 N 0,0
16.09.2020 02:00:00 15,7 14,9 14,4 18,1 18,3 15,7 4 2 7 4 NNE 0,0
16.09.2020 01:00:00 17,2 16,4 15,5 18,4 18,4 15,7 0 0 4 2 N 0,0
16.09.2020 00:00:00 17,6 16,0 16,3 18,7 18,4 15,7 0 0 4 2 N 0,0
15.09.2020 23:00:00 18,2 15,7 16,8 19,0 18,5 15,7 4 2 4 2 ESE 0,0
15.09.2020 22:00:00 19,3 17,7 18,1 19,4 18,5 15,7 4 2 7 4 SE 0,0
15.09.2020 21:00:00 20,6 17,3 19,3 19,9 18,5 15,7 7 4 7 4 E 0,0
15.09.2020 20:00:00 23,3 17,9 21,8 20,4 18,4 15,8 4 2 4 2 ENE 0,0
15.09.2020 19:00:00 26,8 19,4 26,1 20,8 18,2 15,8 4 2 4 2 S 0,0
15.09.2020 18:00:00 29,1 17,5 28,9 21,1 18,0 15,8 4 2 7 4 SW 0,0
15.09.2020 17:00:00 29,5 16,4 29,5 21,2 17,8 15,8 4 2 11 6 SSW 0,0
15.09.2020 16:00:00 29,4 17,5 30,2 21,2 17,5 15,8 7 4 14 8 SSW 0,0
15.09.2020 15:00:00 28,9 16,9 30,2 20,8 17,2 15,8 7 4 14 8 SSE 0,0
15.09.2020 14:00:00 28,2 17,3 29,6 20,1 17,0 15,8 4 2 7 4 S 0,0
15.09.2020 13:00:00 27,0 16,8 28,5 19,2 16,7 15,8 4 2 11 6 SW 0,0
15.09.2020 12:00:00 24,6 17,9 26,2 18,1 16,6 15,8 4 2 7 4 S 0,0
15.09.2020 11:00:00 22,2 17,1 22,8 17,0 16,6 15,8 7 4 7 4 S 0,0
15.09.2020 10:00:00 19,4 16,2 19,8 16,3 16,6 15,8 7 4 7 4 S 0,0
15.09.2020 09:00:00 16,4 15,2 15,2 16,0 16,7 15,8 4 2 4 2 E 0,0
15.09.2020 08:00:00 13,3 13,2 12,5 16,0 16,8 15,8 4 2 7 4 E 0,0
15.09.2020 07:00:00 12,9 12,3 11,9 16,1 16,9 15,8 4 2 4 2 SE 0,0
15.09.2020 06:00:00 13,1 12,3 12,1 16,4 17,0 15,8 4 2 7 4 E 0,0
15.09.2020 05:00:00 13,7 12,8 12,9 16,6 17,0 15,8 4 2 7 4 ENE 0,0
15.09.2020 04:00:00 15,4 14,0 13,9 16,8 17,1 15,8 0 0 11 6 N 0,0
15.09.2020 03:00:00 16,0 14,5 14,8 17,0 17,2 15,8 7 4 11 6 ESE 0,0
15.09.2020 02:00:00 16,4 14,8 15,5 17,2 17,2 15,8 4 2 11 6 ENE 0,0
15.09.2020 01:00:00 16,9 15,4 16,0 17,4 17,3 15,8 11 6 11 6 E 0,0
15.09.2020 00:00:00 16,8 15,6 16,2 17,6 17,3 15,8 11 6 11 6 E 0,0
14.09.2020 23:00:00 17,8 15,8 16,7 17,8 17,3 15,8 7 4 11 6 ENE 0,0
14.09.2020 22:00:00 18,3 15,9 17,2 18,1 17,3 15,8 7 4 11 6 ENE 0,0
14.09.2020 21:00:00 19,4 16,1 18,1 18,5 17,3 15,8 7 4 14 8 NE 0,0
14.09.2020 20:00:00 21,2 17,5 20,2 18,9 17,2 15,8 11 6 11 6 ENE 0,0
14.09.2020 19:00:00 24,8 18,1 24,2 19,2 17,0 15,8 7 4 11 6 ENE 0,0

tt = Température de l'air
td = dewpoint
tt 5cm = Température de l'air 5cm
tt -5cm = Température de l'air -5cm
tt -20cm = Température de l'air -20cm
tt -100cm = Température de l'air -100cm
ff = Vitesse du vent
fx = gusts
dd = Direction du vent
rr = Quantités de précipitations

stations d'obs. à proximité